Time;durP1;ratioP1;P1;durP2;ratioP2;P2;SDS_P1;SDS_P2;PMS_P1;PMS_P2;Temp;Humidity;BMP_temperature;BMP_pressure;BME280_temperature;BME280_humidity;BME280_pressure;Samples;Min_cycle;Max_cycle;Signal;HPM_P1;HPM_P2
2023/11/06 05:02:45;;;;;;;1.30;0.80;;;;;;;10.31;75.29;97504.33;108821;1237;96570;-74
2023/11/06 05:05:15;;;;;;;1.30;0.80;;;;;;;10.32;75.36;97509.59;108489;1234;96665;-75
2023/11/06 05:07:42;;;;;;;1.20;0.70;;;;;;;10.33;75.24;97518.81;108486;1238;96597;-76
2023/11/06 05:10:08;;;;;;;3.30;1.10;;;;;;;10.33;75.25;97523.96;108350;1238;96592;-73
2023/11/06 05:12:38;;;;;;;1.50;0.90;;;;;;;10.34;75.28;97531.02;108516;1237;96650;-75
2023/11/06 05:15:06;;;;;;;5.20;1.00;;;;;;;10.33;75.19;97531.63;108144;1242;96523;-74
2023/11/06 05:17:32;;;;;;;1.80;0.60;;;;;;;10.31;75.33;97535.16;108470;1245;107566;-74
2023/11/06 05:19:59;;;;;;;1.20;0.90;;;;;;;10.30;75.34;97539.17;108275;1237;96615;-74
2023/11/06 05:22:26;;;;;;;0.60;0.60;;;;;;;10.27;75.31;97544.88;108559;1235;97886;-74
2023/11/06 05:24:52;;;;;;;0.80;0.70;;;;;;;10.25;75.22;97550.20;108388;1236;96638;-75
2023/11/06 05:27:19;;;;;;;2.00;0.80;;;;;;;10.22;75.17;97553.18;108660;1235;97816;-75
2023/11/06 05:29:45;;;;;;;2.00;1.20;;;;;;;10.21;75.21;97564.60;108328;1232;97807;-74
2023/11/06 05:32:20;;;;;;;1.80;0.90;;;;;;;10.20;75.24;97576.02;108445;1231;96484;-74
2023/11/06 05:34:47;;;;;;;3.40;1.00;;;;;;;10.20;75.18;97579.63;108531;1237;109903;-82
2023/11/06 05:37:21;;;;;;;6.50;2.00;;;;;;;10.21;75.17;97584.46;108404;1235;96568;-75
2023/11/06 05:39:54;;;;;;;20.50;7.00;;;;;;;10.22;75.15;97590.20;108504;1240;107497;-76
2023/11/06 05:42:33;;;;;;;27.40;10.00;;;;;;;10.23;75.13;97596.98;108559;1232;97803;-79
2023/11/06 05:45:21;;;;;;;19.80;7.30;;;;;;;10.25;75.08;97602.52;108469;1237;96560;-76
2023/11/06 05:47:47;;;;;;;13.50;5.10;;;;;;;10.26;75.00;97610.23;108576;1237;109992;-80
2023/11/06 05:50:22;;;;;;;10.00;3.80;;;;;;;10.27;75.02;97610.79;108735;1236;96493;-75
2023/11/06 05:52:51;;;;;;;2.50;1.60;;;;;;;10.29;74.88;97619.68;108618;1236;107252;-80
2023/11/06 05:55:18;;;;;;;7.70;2.20;;;;;;;10.31;74.78;97631.06;108490;1238;96582;-78
2023/11/06 05:57:55;;;;;;;4.70;2.80;;;;;;;10.32;74.87;97634.48;108638;1236;96504;-75
2023/11/06 06:00:22;;;;;;;6.70;3.30;;;;;;;10.33;74.78;97642.13;108522;1237;108207;-76
2023/11/06 06:02:48;;;;;;;7.80;3.20;;;;;;;10.34;74.80;97649.83;108430;1236;96577;-76
2023/11/06 06:05:15;;;;;;;6.60;2.90;;;;;;;10.35;74.77;97655.59;108595;1232;97097;-75
2023/11/06 06:07:43;;;;;;;7.90;3.30;;;;;;;10.36;74.62;97662.05;108399;1237;96661;-75
2023/11/06 06:10:12;;;;;;;7.80;3.00;;;;;;;10.38;74.60;97670.77;108295;1237;96665;-78
2023/11/06 06:12:39;;;;;;;6.60;2.80;;;;;;;10.38;74.63;97674.79;108489;1236;109778;-81
2023/11/06 06:15:07;;;;;;;7.30;3.00;;;;;;;10.41;74.54;97675.26;108654;1235;96612;-80
2023/11/06 06:17:37;;;;;;;5.80;2.20;;;;;;;10.43;73.89;97680.70;108609;1237;107839;-76
2023/11/06 06:20:15;;;;;;;7.80;3.00;;;;;;;10.47;74.06;97682.49;108577;1245;96658;-79
2023/11/06 06:22:46;;;;;;;4.40;2.00;;;;;;;10.51;74.26;97686.55;108623;1238;96951;-77
2023/11/06 06:25:22;;;;;;;5.80;1.90;;;;;;;10.54;74.33;97688.98;108956;1235;110109;-78
2023/11/06 06:27:58;;;;;;;3.80;1.90;;;;;;;10.56;74.11;97696.52;108131;1231;96587;-75
2023/11/06 06:30:26;;;;;;;2.10;1.50;;;;;;;10.59;73.99;97701.06;108369;1237;107646;-82
2023/11/06 06:32:53;;;;;;;4.60;2.30;;;;;;;10.62;73.89;97706.81;108573;1246;96658;-76
2023/11/06 06:35:23;;;;;;;6.40;2.50;;;;;;;10.65;73.92;97708.27;108608;1237;97799;-78
2023/11/06 06:37:50;;;;;;;6.00;2.20;;;;;;;10.68;73.88;97710.98;108405;1231;96567;-75
2023/11/06 06:40:17;;;;;;;4.00;2.10;;;;;;;10.70;73.54;97714.08;108633;1235;98136;-75
2023/11/06 06:42:43;;;;;;;2.50;1.50;;;;;;;10.67;73.46;97715.77;108275;1246;96729;-76
2023/11/06 06:45:13;;;;;;;5.20;2.70;;;;;;;10.63;73.65;97722.30;108299;1237;97495;-82
2023/11/06 06:47:40;;;;;;;3.90;2.30;;;;;;;10.60;73.59;97726.54;108419;1231;96585;-75
2023/11/06 06:50:08;;;;;;;3.20;1.90;;;;;;;10.59;73.56;97728.41;108511;1237;96581;-75
2023/11/06 06:52:40;;;;;;;3.50;1.50;;;;;;;10.57;73.38;97732.59;108530;1237;96576;-77
2023/11/06 06:55:07;;;;;;;5.40;2.10;;;;;;;10.57;73.56;97733.02;108754;1243;96576;-76
2023/11/06 06:57:33;;;;;;;4.60;2.30;;;;;;;10.60;73.52;97739.59;108324;1231;96607;-74
2023/11/06 07:00:00;;;;;;;2.40;1.40;;;;;;;10.66;73.62;97746.48;108569;1237;96593;-75
2023/11/06 07:02:27;;;;;;;3.20;2.00;;;;;;;10.71;73.50;97745.70;108480;1235;97404;-73
2023/11/06 07:04:54;;;;;;;3.20;1.70;;;;;;;10.76;73.50;97746.27;108406;1242;96647;-73
2023/11/06 07:07:21;;;;;;;2.70;1.30;;;;;;;10.80;73.33;97750.34;108312;1232;97748;-74
2023/11/06 07:09:47;;;;;;;2.90;1.20;;;;;;;10.83;73.41;97753.94;108177;1237;97409;-79
2023/11/06 07:12:14;;;;;;;2.80;1.60;;;;;;;10.87;73.36;97754.14;108477;1236;96569;-74
2023/11/06 07:14:41;;;;;;;1.50;1.00;;;;;;;10.87;73.17;97762.05;108542;1237;97024;-77
2023/11/06 07:17:07;;;;;;;3.00;1.30;;;;;;;10.86;73.17;97762.69;108367;1241;97931;-74
2023/11/06 07:19:34;;;;;;;2.00;1.00;;;;;;;10.84;72.95;97772.08;108627;1237;96563;-74
2023/11/06 07:22:04;;;;;;;2.00;0.90;;;;;;;10.82;73.03;97774.83;108523;1241;109692;-73
2023/11/06 07:24:31;;;;;;;3.30;1.20;;;;;;;10.79;72.91;97776.13;108258;1238;96652;-75
2023/11/06 07:26:57;;;;;;;2.00;1.00;;;;;;;10.76;72.93;97779.95;108614;1236;98241;-78
2023/11/06 07:29:26;;;;;;;2.60;1.10;;;;;;;10.75;72.91;97783.84;108151;1238;96627;-73
2023/11/06 07:31:55;;;;;;;1.90;1.10;;;;;;;10.76;72.82;97787.45;108297;1237;97085;-73
2023/11/06 07:34:22;;;;;;;1.80;1.00;;;;;;;10.79;72.72;97789.96;108463;1235;110325;-75
2023/11/06 07:36:59;;;;;;;4.80;2.00;;;;;;;10.87;72.84;97788.70;108540;1235;96592;-74
2023/11/06 07:39:25;;;;;;;3.70;1.50;;;;;;;10.94;72.68;97786.24;108338;1237;107350;-78
2023/11/06 07:41:52;;;;;;;4.20;1.20;;;;;;;10.99;72.60;97787.27;108277;1236;96747;-76
2023/11/06 07:44:20;;;;;;;2.10;1.50;;;;;;;11.03;72.48;97792.73;108558;1235;97178;-73
2023/11/06 07:46:48;;;;;;;2.00;1.00;;;;;;;11.06;72.33;97795.10;108585;1231;96582;-77
2023/11/06 07:49:15;;;;;;;5.30;2.00;;;;;;;11.12;72.28;97798.08;108513;1235;96711;-74
2023/11/06 07:51:42;;;;;;;2.40;1.40;;;;;;;11.18;72.31;97799.80;108571;1237;96617;-76
2023/11/06 07:54:08;;;;;;;5.00;1.70;;;;;;;11.26;72.09;97799.22;108506;1233;96570;-75
2023/11/06 07:56:38;;;;;;;3.60;1.20;;;;;;;11.33;72.01;97801.58;108593;1237;96541;-74
2023/11/06 07:59:05;;;;;;;2.90;1.30;;;;;;;11.36;71.82;97804.30;108445;1237;97485;-74
2023/11/06 08:01:34;;;;;;;4.60;1.70;;;;;;;11.39;71.82;97810.23;108256;1244;97389;-73
2023/11/06 08:04:02;;;;;;;6.90;2.30;;;;;;;11.43;71.82;97812.53;108484;1238;107033;-76
2023/11/06 08:06:29;;;;;;;4.90;2.00;;;;;;;11.48;71.92;97817.40;108415;1232;96624;-74
2023/11/06 08:08:56;;;;;;;5.60;1.70;;;;;;;11.50;71.94;97820.19;108566;1237;97811;-73
2023/11/06 08:11:23;;;;;;;5.20;1.80;;;;;;;11.52;71.69;97822.48;108284;1237;96606;-75
2023/11/06 08:13:50;;;;;;;6.90;2.40;;;;;;;11.57;71.29;97832.34;108464;1237;96629;-74
2023/11/06 08:16:17;;;;;;;7.90;2.90;;;;;;;11.60;70.37;97841.92;108224;1243;97510;-75
2023/11/06 08:18:46;;;;;;;10.90;2.90;;;;;;;11.63;71.04;97839.17;108532;1245;96596;-73
2023/11/06 08:21:12;;;;;;;7.00;2.50;;;;;;;11.64;71.27;97843.34;108518;1235;109514;-77
2023/11/06 08:23:39;;;;;;;6.60;2.40;;;;;;;11.66;71.16;97851.20;108353;1245;96604;-73
2023/11/06 08:26:08;;;;;;;9.40;2.50;;;;;;;11.68;70.52;97858.07;108454;1237;107458;-74
2023/11/06 08:28:35;;;;;;;6.00;2.10;;;;;;;11.75;71.13;97859.85;108441;1235;96663;-72
2023/11/06 08:31:04;;;;;;;4.50;1.70;;;;;;;11.88;71.00;97863.06;108256;1243;97481;-74
2023/11/06 08:33:31;;;;;;;5.80;2.30;;;;;;;12.02;70.95;97864.06;108485;1236;110375;-74
2023/11/06 08:35:58;;;;;;;7.20;2.00;;;;;;;12.15;70.83;97869.36;108596;1235;96666;-79
2023/11/06 08:38:24;;;;;;;2.80;1.20;;;;;;;12.27;70.11;97871.23;108523;1244;97847;-73
2023/11/06 08:40:56;;;;;;;3.50;1.40;;;;;;;12.32;70.28;97875.86;108294;1246;96663;-74
2023/11/06 08:43:23;;;;;;;4.80;1.60;;;;;;;12.35;69.58;97876.77;108379;1236;96583;-73
2023/11/06 08:45:50;;;;;;;3.20;1.40;;;;;;;12.38;70.22;97885.06;108468;1236;96548;-74
2023/11/06 08:48:17;;;;;;;1.70;1.10;;;;;;;12.41;70.10;97888.54;108480;1235;96579;-73
2023/11/06 08:50:43;;;;;;;3.40;1.50;;;;;;;12.43;70.15;97889.42;108676;1245;96590;-75
2023/11/06 08:53:10;;;;;;;3.50;1.50;;;;;;;12.44;68.80;97895.83;108424;1233;96655;-73
2023/11/06 08:55:37;;;;;;;4.00;1.30;;;;;;;12.46;69.58;97898.98;108336;1231;97507;-75
2023/11/06 08:58:09;;;;;;;6.50;1.70;;;;;;;12.50;69.90;97904.67;108271;1235;97539;-75
2023/11/06 09:00:36;;;;;;;3.30;1.30;;;;;;;12.55;69.85;97907.73;108339;1237;107718;-74
2023/11/06 09:03:05;;;;;;;4.50;1.20;;;;;;;12.58;69.70;97917.64;108543;1237;96545;-74
2023/11/06 09:05:32;;;;;;;5.80;1.50;;;;;;;12.59;69.20;97924.61;108370;1243;97471;-74
2023/11/06 09:07:59;;;;;;;2.60;1.00;;;;;;;12.59;69.43;97928.16;108597;1235;96644;-78
2023/11/06 09:10:26;;;;;;;4.50;1.30;;;;;;;12.56;68.00;97929.66;108549;1242;97510;-76
2023/11/06 09:12:55;;;;;;;2.60;1.30;;;;;;;12.58;69.02;97937.55;108486;1246;96528;-76
2023/11/06 09:15:22;;;;;;;3.90;1.30;;;;;;;12.60;68.74;97936.63;108412;1236;97083;-73
2023/11/06 09:17:51;;;;;;;4.20;1.10;;;;;;;12.61;68.85;97945.18;108741;1243;97861;-77
2023/11/06 09:20:18;;;;;;;6.20;1.80;;;;;;;12.64;68.72;97948.96;108342;1236;109424;-74
2023/11/06 09:22:44;;;;;;;2.60;1.20;;;;;;;12.68;68.51;97955.88;108292;1246;96633;-75
2023/11/06 09:25:11;;;;;;;8.00;2.10;;;;;;;12.70;68.30;97955.86;108593;1245;96508;-74
2023/11/06 09:27:38;;;;;;;3.10;1.30;;;;;;;12.74;68.60;97960.48;108635;1243;96649;-74
2023/11/06 09:30:08;;;;;;;3.60;1.50;;;;;;;12.77;67.97;97966.18;108716;1235;96570;-74
2023/11/06 09:32:37;;;;;;;4.40;1.70;;;;;;;12.79;68.08;97972.05;108669;1242;97103;-75
2023/11/06 09:35:04;;;;;;;3.70;1.00;;;;;;;12.82;67.93;97972.38;108477;1245;96554;-75
2023/11/06 09:37:39;;;;;;;1.80;1.10;;;;;;;12.83;67.71;97971.16;108559;1246;96571;-73
2023/11/06 09:40:18;;;;;;;7.50;1.20;;;;;;;12.85;66.93;97973.65;108216;1238;96631;-72
2023/11/06 09:42:45;;;;;;;4.60;1.30;;;;;;;12.87;67.69;97975.35;108238;1246;109806;-78
2023/11/06 09:45:12;;;;;;;2.10;1.10;;;;;;;12.92;67.44;97976.27;108384;1236;96649;-74
2023/11/06 09:47:52;;;;;;;4.60;1.70;;;;;;;12.97;67.37;97975.87;108464;1237;107474;-73
2023/11/06 09:50:20;;;;;;;4.40;1.80;;;;;;;13.01;66.90;97977.41;108410;1237;96624;-74
2023/11/06 09:52:55;;;;;;;3.10;1.70;;;;;;;13.03;67.30;97981.23;108394;1239;96546;-79
2023/11/06 09:55:22;;;;;;;2.80;1.50;;;;;;;13.06;66.96;97984.02;108508;1237;109783;-73
2023/11/06 09:57:50;;;;;;;4.00;1.30;;;;;;;13.10;67.18;97990.02;108570;1237;97043;-75
2023/11/06 10:00:17;;;;;;;1.90;1.10;;;;;;;13.12;66.76;97991.98;108548;1244;107469;-74
2023/11/06 10:02:44;;;;;;;2.20;1.00;;;;;;;13.13;66.50;97993.11;108345;1238;96583;-75
2023/11/06 10:05:15;;;;;;;2.70;1.00;;;;;;;13.14;66.88;97997.61;108326;1231;96633;-74
2023/11/06 10:07:45;;;;;;;2.40;0.90;;;;;;;13.18;66.87;98001.16;108460;1235;109515;-73
2023/11/06 10:10:30;;;;;;;4.70;1.20;;;;;;;13.21;66.77;98000.60;108567;1239;96521;-73
2023/11/06 10:13:05;;;;;;;4.60;1.70;;;;;;;13.28;66.99;97999.23;108348;1244;107972;-74
2023/11/06 10:15:34;;;;;;;4.50;1.50;;;;;;;13.35;66.76;98003.70;108381;1237;96570;-73
2023/11/06 10:18:18;;;;;;;2.80;1.70;;;;;;;13.41;66.33;98006.11;108506;1236;97047;-73
2023/11/06 10:20:47;;;;;;;5.80;2.10;;;;;;;13.47;65.90;98000.55;108476;1236;110291;-73
2023/11/06 10:23:32;;;;;;;4.00;2.10;;;;;;;13.49;65.70;98002.66;108514;1235;97688;-76
2023/11/06 10:26:13;;;;;;;5.10;1.60;;;;;;;13.46;64.76;98004.81;108360;1237;107105;-77
2023/11/06 10:28:41;;;;;;;4.90;1.50;;;;;;;13.43;65.61;98008.17;108352;1237;97746;-74
2023/11/06 10:31:09;;;;;;;3.90;1.40;;;;;;;13.41;64.80;98014.02;108468;1237;96667;-75
2023/11/06 10:33:36;;;;;;;3.20;1.30;;;;;;;13.42;65.00;98017.15;108406;1235;109386;-75
2023/11/06 10:36:15;;;;;;;3.60;1.70;;;;;;;13.39;64.92;98014.48;108528;1241;97950;-74
2023/11/06 10:38:43;;;;;;;4.30;1.90;;;;;;;13.35;65.65;98010.98;108168;1246;106681;-77
2023/11/06 10:41:24;;;;;;;3.70;1.30;;;;;;;13.32;65.30;98015.06;108475;1236;96529;-74
2023/11/06 10:43:52;;;;;;;2.90;1.10;;;;;;;13.28;65.44;98007.81;108323;1236;96608;-76
2023/11/06 10:46:31;;;;;;;4.20;1.00;;;;;;;13.29;64.49;98017.87;108356;1237;109226;-75
2023/11/06 10:49:18;;;;;;;10.70;3.30;;;;;;;13.30;64.30;98012.27;108531;1246;96570;-74
2023/11/06 10:51:48;;;;;;;5.30;1.70;;;;;;;13.32;64.46;98018.60;108275;1245;106999;-80
2023/11/06 10:54:16;;;;;;;2.80;1.20;;;;;;;13.41;65.21;98021.48;108501;1243;96884;-74
2023/11/06 10:56:43;;;;;;;5.00;1.20;;;;;;;13.52;65.64;98018.27;108391;1237;97953;-76
2023/11/06 10:59:11;;;;;;;3.50;1.20;;;;;;;13.56;65.26;98022.11;108505;1246;96519;-72
2023/11/06 11:03:36;;;;;;;5.80;1.70;;;;;;;13.51;64.89;98032.80;102173;1294;635990;-74
2023/11/06 11:06:04;;;;;;;2.90;1.00;;;;;;;13.46;64.93;98040.23;104676;1272;94442;-74
2023/11/06 11:08:33;;;;;;;2.50;1.10;;;;;;;13.42;64.28;98043.67;104699;1270;94878;-77
2023/11/06 11:11:05;;;;;;;2.50;1.10;;;;;;;13.33;64.70;98045.91;107416;1267;106948;-74
2023/11/06 11:13:35;;;;;;;5.20;1.30;;;;;;;13.23;64.73;98048.88;104752;1270;94817;-75
2023/11/06 11:16:39;;;;;;;3.50;1.40;;;;;;;13.16;64.56;98049.76;105209;1263;255058;-76
2023/11/06 11:19:28;;;;;;;4.30;1.60;;;;;;;13.13;64.85;98053.09;105677;1256;94287;-74
2023/11/06 11:22:08;;;;;;;4.90;2.00;;;;;;;13.14;64.10;98054.73;105496;1256;94301;-74
2023/11/06 11:24:45;;;;;;;3.20;1.50;;;;;;;13.11;63.22;98058.08;105530;1259;106794;-74
2023/11/06 11:27:22;;;;;;;12.10;3.00;;;;;;;13.05;64.28;98053.29;105501;1256;95314;-74
2023/11/06 11:29:54;;;;;;;11.90;3.80;;;;;;;13.02;63.43;98058.48;105434;1261;107581;-75
2023/11/06 11:32:52;;;;;;;4.10;2.30;;;;;;;13.02;64.29;98055.46;105483;1257;95245;-74
2023/11/06 11:35:26;;;;;;;4.50;1.90;;;;;;;12.96;63.87;98059.18;105241;1258;95246;-75
2023/11/06 11:37:59;;;;;;;5.40;1.80;;;;;;;12.92;64.01;98056.59;105699;1258;108620;-74
2023/11/06 11:41:05;;;;;;;2.80;1.30;;;;;;;12.91;63.66;98063.29;105390;1259;95561;-73
2023/11/06 11:43:36;;;;;;;4.40;1.50;;;;;;;12.92;63.44;98057.27;105397;1269;107652;-73
2023/11/06 11:46:34;;;;;;;2.10;1.10;;;;;;;13.00;64.05;98059.35;105223;1259;95809;-74
2023/11/06 11:49:03;;;;;;;6.80;1.70;;;;;;;13.13;64.09;98061.80;105407;1258;96175;-74
2023/11/06 11:51:51;;;;;;;5.30;1.80;;;;;;;13.24;63.86;98063.57;105475;1262;108155;-75
2023/11/06 11:54:30;;;;;;;4.90;1.80;;;;;;;13.36;63.01;98063.04;105310;1259;96110;-74
2023/11/06 11:57:02;;;;;;;4.10;1.60;;;;;;;13.48;63.00;98059.98;105183;1260;107689;-74
2023/11/06 11:59:39;;;;;;;3.80;1.70;;;;;;;13.52;63.34;98063.10;105368;1258;95256;-74
2023/11/06 12:02:21;;;;;;;5.40;1.90;;;;;;;13.51;63.59;98062.89;105568;1259;96054;-79
2023/11/06 12:04:49;;;;;;;4.30;1.90;;;;;;;13.45;62.61;98068.84;105467;1258;108364;-74
2023/11/06 12:07:18;;;;;;;5.00;1.80;;;;;;;13.33;62.94;98068.71;105490;1262;95174;-74
2023/11/06 12:09:51;;;;;;;7.50;2.80;;;;;;;13.20;61.86;98070.86;105443;1258;107172;-74
2023/11/06 12:12:27;;;;;;;5.90;2.10;;;;;;;13.08;62.01;98074.54;105488;1253;95251;-73
2023/11/06 12:14:57;;;;;;;2.60;1.40;;;;;;;13.03;62.86;98070.23;105220;1258;96184;-75
2023/11/06 12:17:31;;;;;;;4.70;1.80;;;;;;;13.02;61.81;98076.82;105317;1255;107779;-76
2023/11/06 12:20:00;;;;;;;3.90;1.30;;;;;;;13.02;62.97;98079.06;105509;1258;95276;-74
2023/11/06 12:22:33;;;;;;;10.00;3.90;;;;;;;13.02;62.34;98084.73;105354;1267;107977;-76
2023/11/06 12:25:01;;;;;;;1.80;1.40;;;;;;;13.03;62.10;98092.81;105347;1256;95239;-73
2023/11/06 12:27:34;;;;;;;3.20;1.40;;;;;;;13.03;62.29;98088.35;105246;1257;95209;-74
2023/11/06 12:30:07;;;;;;;2.90;1.30;;;;;;;13.02;61.52;98094.20;105441;1259;108198;-78
2023/11/06 12:32:40;;;;;;;3.70;1.50;;;;;;;13.02;61.69;98097.41;105276;1263;95723;-74
2023/11/06 12:35:19;;;;;;;4.20;1.80;;;;;;;13.00;61.69;98098.86;105201;1266;106193;-75
2023/11/06 12:37:54;;;;;;;3.10;1.80;;;;;;;12.97;61.74;98104.80;105261;1257;95326;-77
2023/11/06 12:40:27;;;;;;;5.90;2.40;;;;;;;12.93;60.47;98107.91;105384;1256;95253;-73
2023/11/06 12:43:01;;;;;;;2.80;1.60;;;;;;;12.88;61.59;98103.92;105385;1256;108756;-75
2023/11/06 12:45:31;;;;;;;5.70;1.70;;;;;;;12.82;61.32;98110.52;105453;1261;95228;-74
2023/11/06 12:48:02;;;;;;;4.70;1.50;;;;;;;12.79;61.27;98109.61;105485;1257;107118;-74
2023/11/06 12:50:34;;;;;;;2.90;1.30;;;;;;;12.76;61.62;98114.15;105422;1256;96057;-75
2023/11/06 12:53:03;;;;;;;7.90;3.10;;;;;;;12.71;60.88;98116.43;105774;1258;95154;-78
2023/11/06 12:55:31;;;;;;;7.60;3.20;;;;;;;12.65;61.53;98115.23;105544;1256;108775;-73
2023/11/06 12:58:09;;;;;;;3.00;1.60;;;;;;;12.59;61.65;98121.48;105410;1255;95447;-73
2023/11/06 13:00:38;;;;;;;7.80;2.40;;;;;;;12.56;61.79;98122.65;105385;1257;107637;-74
2023/11/06 13:03:06;;;;;;;8.20;1.80;;;;;;;12.56;61.57;98124.30;105678;1255;95247;-73
2023/11/06 13:05:35;;;;;;;5.30;2.00;;;;;;;12.54;61.70;98132.42;105551;1257;95262;-75
2023/11/06 13:08:06;;;;;;;7.60;2.80;;;;;;;12.53;61.29;98132.71;105519;1257;109338;-74
2023/11/06 13:10:36;;;;;;;11.70;4.00;;;;;;;12.53;61.60;98135.71;105398;1258;95260;-74
2023/11/06 13:13:11;;;;;;;8.30;2.80;;;;;;;12.54;61.28;98139.05;105497;1257;107437;-73
2023/11/06 13:15:41;;;;;;;17.20;4.50;;;;;;;12.55;61.56;98141.06;105408;1260;96521;-73
2023/11/06 13:18:12;;;;;;;10.70;4.00;;;;;;;12.54;61.31;98143.09;105404;1252;95261;-74
2023/11/06 13:20:46;;;;;;;8.30;3.10;;;;;;;12.53;61.40;98147.45;105466;1260;108687;-77
2023/11/06 13:23:16;;;;;;;8.40;3.10;;;;;;;12.52;61.48;98149.72;105489;1258;95152;-74
2023/11/06 13:25:44;;;;;;;7.00;3.10;;;;;;;12.50;61.00;98152.34;105549;1254;105911;-75
2023/11/06 13:28:12;;;;;;;8.50;2.70;;;;;;;12.50;61.08;98149.32;105432;1267;95230;-74
2023/11/06 13:30:40;;;;;;;6.40;2.60;;;;;;;12.51;61.23;98155.98;105450;1257;95272;-78
2023/11/06 13:33:08;;;;;;;8.70;2.10;;;;;;;12.49;61.31;98153.73;105330;1257;108745;-74
2023/11/06 13:35:41;;;;;;;4.90;2.00;;;;;;;12.48;60.99;98157.15;105462;1266;95481;-74
2023/11/06 13:38:09;;;;;;;3.70;2.10;;;;;;;12.46;61.01;98161.45;105327;1266;107684;-74
2023/11/06 13:40:43;;;;;;;5.20;1.90;;;;;;;12.43;61.13;98161.70;105261;1267;95242;-73
2023/11/06 13:43:12;;;;;;;6.60;2.80;;;;;;;12.40;61.12;98168.11;105408;1254;96260;-74
2023/11/06 13:45:41;;;;;;;5.70;2.70;;;;;;;12.37;61.03;98166.27;105415;1257;108621;-75
2023/11/06 13:48:10;;;;;;;8.40;2.70;;;;;;;12.33;61.01;98169.23;105523;1257;95539;-74
2023/11/06 13:50:46;;;;;;;9.30;2.90;;;;;;;12.32;60.97;98172.56;105514;1257;107081;-73
2023/11/06 13:53:22;;;;;;;9.20;3.40;;;;;;;12.29;60.92;98177.64;105143;1269;95852;-74
2023/11/06 13:56:04;;;;;;;12.30;4.60;;;;;;;12.29;60.64;98183.52;105504;1255;95241;-74
2023/11/06 13:58:39;;;;;;;12.60;4.10;;;;;;;12.27;60.88;98186.55;105500;1254;108380;-73
2023/11/06 14:01:11;;;;;;;13.70;4.30;;;;;;;12.24;60.80;98188.63;105558;1257;95160;-74
2023/11/06 14:03:47;;;;;;;12.10;3.80;;;;;;;12.22;60.69;98199.81;105275;1255;107063;-74
2023/11/06 14:06:16;;;;;;;10.60;3.70;;;;;;;12.21;60.57;98207.73;105306;1256;96089;-75
2023/11/06 14:08:50;;;;;;;15.00;4.30;;;;;;;12.18;60.62;98212.73;105483;1257;95345;-75
2023/11/06 14:11:21;;;;;;;7.50;3.30;;;;;;;12.16;60.53;98218.63;105378;1267;108295;-74
2023/11/06 14:13:49;;;;;;;7.00;2.40;;;;;;;12.13;60.49;98224.80;105299;1257;95486;-74
2023/11/06 14:16:18;;;;;;;7.10;3.00;;;;;;;12.13;60.64;98227.30;105383;1254;107450;-74
2023/11/06 14:18:50;;;;;;;7.40;2.60;;;;;;;12.13;60.58;98230.50;105488;1254;95272;-74
2023/11/06 14:21:18;;;;;;;4.30;2.20;;;;;;;12.10;60.51;98226.99;105473;1256;95397;-74
2023/11/06 14:23:47;;;;;;;6.20;2.50;;;;;;;12.08;60.55;98228.63;105535;1257;108877;-76
2023/11/06 14:26:16;;;;;;;6.00;2.50;;;;;;;12.03;60.55;98224.65;105327;1267;95615;-74
2023/11/06 14:28:44;;;;;;;8.80;2.70;;;;;;;11.99;60.51;98230.34;105379;1257;107596;-75
2023/11/06 14:31:13;;;;;;;12.50;3.40;;;;;;;11.94;60.48;98228.30;105388;1257;95254;-74
2023/11/06 14:33:43;;;;;;;8.50;2.60;;;;;;;11.88;60.45;98230.02;105458;1254;95227;-74
2023/11/06 14:36:12;;;;;;;11.80;3.20;;;;;;;11.84;60.41;98235.95;105480;1259;109305;-76
2023/11/06 14:38:41;;;;;;;9.90;3.80;;;;;;;11.79;60.27;98237.30;105416;1256;95285;-75
2023/11/06 14:41:11;;;;;;;12.60;4.40;;;;;;;11.74;60.35;98240.02;105442;1267;107477;-76
2023/11/06 14:43:40;;;;;;;10.10;3.80;;;;;;;11.69;60.39;98243.66;105376;1254;95804;-74
2023/11/06 14:46:09;;;;;;;7.80;3.00;;;;;;;11.65;60.32;98253.30;105240;1258;95244;-74
2023/11/06 14:48:37;;;;;;;7.70;3.00;;;;;;;11.58;60.36;98255.33;105477;1254;108031;-74
2023/11/06 14:51:15;;;;;;;12.60;3.20;;;;;;;11.52;60.33;98258.30;105418;1258;96145;-74
2023/11/06 14:53:43;;;;;;;8.70;3.10;;;;;;;11.49;60.28;98258.27;105579;1254;107751;-73
2023/11/06 14:56:15;;;;;;;13.60;3.90;;;;;;;11.45;60.27;98263.34;105519;1275;95297;-73
2023/11/06 14:58:44;;;;;;;7.50;3.00;;;;;;;11.40;60.20;98264.34;105767;1254;95221;-73
2023/11/06 15:01:12;;;;;;;9.50;3.50;;;;;;;11.37;60.18;98265.73;105304;1265;108655;-75
2023/11/06 15:03:41;;;;;;;7.90;3.20;;;;;;;11.31;60.13;98263.20;105526;1254;95837;-74
2023/11/06 15:06:10;;;;;;;7.30;3.20;;;;;;;11.26;60.07;98273.42;105466;1254;107631;-75
2023/11/06 15:08:40;;;;;;;7.40;3.00;;;;;;;11.20;60.07;98273.02;105531;1266;95297;-73
2023/11/06 15:11:09;;;;;;;17.80;6.50;;;;;;;11.15;60.23;98275.09;105646;1257;95272;-74
2023/11/06 15:13:38;;;;;;;12.90;4.30;;;;;;;11.11;60.16;98279.30;105603;1255;108327;-74
2023/11/06 15:16:07;;;;;;;12.20;4.70;;;;;;;11.06;60.11;98283.30;105354;1257;96176;-76
2023/11/06 18:40:06;;;;;;;;;;;;;;;;;;;;;
2023/11/06 18:44:07;;;;;;;;;;;;;;;;;;;;;
2023/11/06 18:48:33;;;;;;;;;;;;;;;;;;;;;
2023/11/06 18:52:32;;;;;;;;;;;;;;;;;;;;;
2023/11/06 18:56:30;;;;;;;;;;;;;;;;;;;;;
2023/11/06 19:01:10;;;;;;;;;;;;;;;;;;;;;
2023/11/06 19:24:25;;;;;;;;;;;;;;;;;;;;;
